Rocky Mountain Metropolitan Airport
KBJC : now visible

Airfield :











YOU CAN JOIN US ON...

 
LOGIN :

Register | Disclaimer

   EN    FR    IT 

 









Legend :    VFR   Marginal VFR   IFR   Intensive IFR   Very Intensive IFR
Visi :
Ceiling :
>= 8 km
>= 3000ft
5 to 8 km
1000 to 3000 ft
1500m to 5 km
500 to 1000 ft
800 to 1500m
200 to 500 ft
< 800m
< 200 ft
Symbols :   Thunderstorms  Fog  Heavy snow  Heavy precipitations  Wind > 20 kt






- Airport Elevation : 5673 ft


KBJC - Rocky Mountain Metropolitan

CURRENT METAR :
  • 281445Z 02005KT 10SM BKN014 14/11 A3032

EXPIRED METARs :
  • 281347Z VRB03KT 10SM BKN014 14/11 A3032
  • 281254Z AUTO 00000KT 10SM BKN085 12/10 A3030 RMK AO2
  • 281230Z AUTO 33003KT 10SM SCT085 SCT110 12/10 A3030 RMK AO2 LTG DSNT SE
  • 281212Z AUTO 35004KT 10SM SCT085 BKN110 12/10 A3029 RMK AO2

TAF KBJC
Valid from the 28 at 14:00 until the 29 at 12:00 UTC


281352Z 2814/2912 05008KT P6SM BKN012 BKN090
FM281600 07007KT P6SM BKN020
FM281700 08008KT P6SM FEW025
FM282000 09007KT P6SM SCT050 BKN100
TEMPO 2822/2902 VRB15G35KT -TSRA BKN060CB
FM290200 10008KT P6SM SCT070 BKN120 BKN220
FM290400 23006KT P6SM SCT050 BKN100
FM290700 30005KT P6SM FEW100 SCT220
KZDV FIR / North America



MET'MAP, your aeronautical weather chart ! - Copyright ORBIFLY December 2007 - Disclaimer

ORBIFLY MET'MAP TEAM :

Programming & Development : Alexandra Zaïnal
Concept & original design : Baudouin d'Aumeries
Assistance for programming : Marc-Olivier Méhu
Technical & hardware support : Manuel Goepfert

Contact : metmap@orbifly.com




SOURCES & CREDITS :

   NOAA       Earth
Advisory